sensor_id;sensor_type;location;lat;lon;timestamp;P1;durP1;ratioP1;P2;durP2;ratioP2
4694;SDS011;2361;49.540;8.390;2022-08-02T00:00:31;3.43;;;3.13;;
4694;SDS011;2361;49.540;8.390;2022-08-02T00:02:59;4.17;;;3.80;;
4694;SDS011;2361;49.540;8.390;2022-08-02T00:05:26;4.27;;;3.97;;
4694;SDS011;2361;49.540;8.390;2022-08-02T00:07:53;4.20;;;3.90;;
4694;SDS011;2361;49.540;8.390;2022-08-02T00:10:20;3.60;;;3.30;;
4694;SDS011;2361;49.540;8.390;2022-08-02T00:12:47;4.33;;;4.03;;
4694;SDS011;2361;49.540;8.390;2022-08-02T00:15:14;3.87;;;3.57;;
4694;SDS011;2361;49.540;8.390;2022-08-02T00:17:42;4.33;;;3.93;;
4694;SDS011;2361;49.540;8.390;2022-08-02T00:20:13;4.43;;;3.80;;
4694;SDS011;2361;49.540;8.390;2022-08-02T00:22:40;4.30;;;3.90;;
4694;SDS011;2361;49.540;8.390;2022-08-02T00:25:08;8.40;;;4.13;;
4694;SDS011;2361;49.540;8.390;2022-08-02T00:27:35;3.93;;;3.63;;
4694;SDS011;2361;49.540;8.390;2022-08-02T00:30:02;3.93;;;3.63;;
4694;SDS011;2361;49.540;8.390;2022-08-02T00:32:30;3.77;;;3.47;;
4694;SDS011;2361;49.540;8.390;2022-08-02T00:34:56;4.73;;;3.30;;
4694;SDS011;2361;49.540;8.390;2022-08-02T00:37:23;3.83;;;3.53;;
4694;SDS011;2361;49.540;8.390;2022-08-02T00:39:50;3.93;;;3.53;;
4694;SDS011;2361;49.540;8.390;2022-08-02T00:42:17;4.93;;;3.80;;
4694;SDS011;2361;49.540;8.390;2022-08-02T00:44:44;3.70;;;3.40;;
4694;SDS011;2361;49.540;8.390;2022-08-02T00:47:11;4.17;;;3.87;;
4694;SDS011;2361;49.540;8.390;2022-08-02T00:49:44;3.50;;;3.20;;
4694;SDS011;2361;49.540;8.390;2022-08-02T00:52:11;3.70;;;3.40;;
4694;SDS011;2361;49.540;8.390;2022-08-02T00:54:39;3.60;;;3.30;;
4694;SDS011;2361;49.540;8.390;2022-08-02T00:57:06;3.43;;;3.23;;
4694;SDS011;2361;49.540;8.390;2022-08-02T00:59:33;3.50;;;3.30;;
4694;SDS011;2361;49.540;8.390;2022-08-02T01:02:00;2.77;;;2.63;;
4694;SDS011;2361;49.540;8.390;2022-08-02T01:04:27;3.47;;;3.27;;
4694;SDS011;2361;49.540;8.390;2022-08-02T01:07:00;4.00;;;3.70;;
4694;SDS011;2361;49.540;8.390;2022-08-02T01:09:42;3.30;;;3.10;;
4694;SDS011;2361;49.540;8.390;2022-08-02T01:12:10;4.20;;;3.50;;
4694;SDS011;2361;49.540;8.390;2022-08-02T01:14:42;4.00;;;3.60;;
4694;SDS011;2361;49.540;8.390;2022-08-02T01:17:17;3.27;;;3.10;;
4694;SDS011;2361;49.540;8.390;2022-08-02T01:26:17;3.47;;;3.27;;
4694;SDS011;2361;49.540;8.390;2022-08-02T01:31:52;3.27;;;3.07;;
4694;SDS011;2361;49.540;8.390;2022-08-02T01:34:31;3.57;;;3.30;;
4694;SDS011;2361;49.540;8.390;2022-08-02T01:37:27;3.43;;;3.07;;
4694;SDS011;2361;49.540;8.390;2022-08-02T01:39:53;3.80;;;3.47;;
4694;SDS011;2361;49.540;8.390;2022-08-02T01:42:29;3.60;;;3.40;;
4694;SDS011;2361;49.540;8.390;2022-08-02T01:44:58;5.07;;;3.27;;
4694;SDS011;2361;49.540;8.390;2022-08-02T01:47:28;4.00;;;3.30;;
4694;SDS011;2361;49.540;8.390;2022-08-02T01:50:00;3.33;;;3.13;;
4694;SDS011;2361;49.540;8.390;2022-08-02T01:52:31;3.87;;;3.57;;
4694;SDS011;2361;49.540;8.390;2022-08-02T01:55:22;3.30;;;3.00;;
4694;SDS011;2361;49.540;8.390;2022-08-02T01:58:20;3.47;;;3.27;;
4694;SDS011;2361;49.540;8.390;2022-08-02T02:00:50;3.20;;;3.00;;
4694;SDS011;2361;49.540;8.390;2022-08-02T02:03:23;3.80;;;3.50;;
4694;SDS011;2361;49.540;8.390;2022-08-02T02:05:53;8.83;;;3.40;;
4694;SDS011;2361;49.540;8.390;2022-08-02T02:08:25;3.10;;;2.90;;
4694;SDS011;2361;49.540;8.390;2022-08-02T02:10:56;3.60;;;3.30;;
4694;SDS011;2361;49.540;8.390;2022-08-02T02:13:44;3.73;;;3.43;;
4694;SDS011;2361;49.540;8.390;2022-08-02T02:16:11;4.90;;;3.90;;
4694;SDS011;2361;49.540;8.390;2022-08-02T02:18:40;5.67;;;3.60;;
4694;SDS011;2361;49.540;8.390;2022-08-02T02:21:10;4.00;;;3.50;;
4694;SDS011;2361;49.540;8.390;2022-08-02T02:23:37;5.03;;;3.83;;
4694;SDS011;2361;49.540;8.390;2022-08-02T02:26:06;3.77;;;3.47;;
4694;SDS011;2361;49.540;8.390;2022-08-02T02:28:38;13.70;;;4.30;;
4694;SDS011;2361;49.540;8.390;2022-08-02T02:31:07;4.70;;;4.00;;
4694;SDS011;2361;49.540;8.390;2022-08-02T02:33:40;4.03;;;3.73;;
4694;SDS011;2361;49.540;8.390;2022-08-02T02:36:17;4.47;;;4.07;;
4694;SDS011;2361;49.540;8.390;2022-08-02T02:38:46;4.23;;;3.93;;
4694;SDS011;2361;49.540;8.390;2022-08-02T02:41:16;4.50;;;4.10;;
4694;SDS011;2361;49.540;8.390;2022-08-02T02:43:44;4.20;;;3.80;;
4694;SDS011;2361;49.540;8.390;2022-08-02T02:46:11;4.57;;;4.17;;
4694;SDS011;2361;49.540;8.390;2022-08-02T02:48:38;4.40;;;4.00;;
4694;SDS011;2361;49.540;8.390;2022-08-02T02:51:06;4.30;;;3.90;;
4694;SDS011;2361;49.540;8.390;2022-08-02T02:53:39;4.40;;;4.00;;
4694;SDS011;2361;49.540;8.390;2022-08-02T02:56:28;4.67;;;4.37;;
4694;SDS011;2361;49.540;8.390;2022-08-02T02:58:55;4.33;;;4.03;;
4694;SDS011;2361;49.540;8.390;2022-08-02T03:01:22;5.13;;;4.20;;
4694;SDS011;2361;49.540;8.390;2022-08-02T03:04:12;4.03;;;3.63;;
4694;SDS011;2361;49.540;8.390;2022-08-02T03:06:40;4.23;;;3.90;;
4694;SDS011;2361;49.540;8.390;2022-08-02T03:09:08;4.40;;;4.00;;
4694;SDS011;2361;49.540;8.390;2022-08-02T03:11:36;4.03;;;3.60;;
4694;SDS011;2361;49.540;8.390;2022-08-02T03:14:07;3.60;;;3.30;;
4694;SDS011;2361;49.540;8.390;2022-08-02T03:16:46;4.10;;;3.80;;
4694;SDS011;2361;49.540;8.390;2022-08-02T03:19:15;3.77;;;3.50;;
4694;SDS011;2361;49.540;8.390;2022-08-02T03:21:45;3.70;;;3.07;;
4694;SDS011;2361;49.540;8.390;2022-08-02T03:24:22;3.97;;;3.67;;
4694;SDS011;2361;49.540;8.390;2022-08-02T03:26:53;3.73;;;3.50;;
4694;SDS011;2361;49.540;8.390;2022-08-02T03:29:21;4.57;;;4.17;;
4694;SDS011;2361;49.540;8.390;2022-08-02T03:31:48;4.30;;;4.00;;
4694;SDS011;2361;49.540;8.390;2022-08-02T03:34:15;4.40;;;4.00;;
4694;SDS011;2361;49.540;8.390;2022-08-02T03:36:42;3.70;;;3.40;;
4694;SDS011;2361;49.540;8.390;2022-08-02T03:39:17;4.10;;;3.70;;
4694;SDS011;2361;49.540;8.390;2022-08-02T03:41:45;3.70;;;3.40;;
4694;SDS011;2361;49.540;8.390;2022-08-02T03:44:14;4.00;;;3.70;;
4694;SDS011;2361;49.540;8.390;2022-08-02T03:46:42;5.10;;;3.87;;
4694;SDS011;2361;49.540;8.390;2022-08-02T03:49:09;4.33;;;4.03;;
4694;SDS011;2361;49.540;8.390;2022-08-02T03:51:37;4.00;;;3.70;;
4694;SDS011;2361;49.540;8.390;2022-08-02T03:54:05;3.50;;;3.30;;
4694;SDS011;2361;49.540;8.390;2022-08-02T03:56:32;3.70;;;3.40;;
4694;SDS011;2361;49.540;8.390;2022-08-02T03:59:09;3.97;;;3.70;;
4694;SDS011;2361;49.540;8.390;2022-08-02T04:01:38;3.87;;;3.57;;
4694;SDS011;2361;49.540;8.390;2022-08-02T04:04:06;3.90;;;3.60;;
4694;SDS011;2361;49.540;8.390;2022-08-02T04:06:33;3.93;;;3.40;;
4694;SDS011;2361;49.540;8.390;2022-08-02T04:09:05;4.23;;;3.50;;
4694;SDS011;2361;49.540;8.390;2022-08-02T04:11:32;4.60;;;4.03;;
4694;SDS011;2361;49.540;8.390;2022-08-02T04:14:01;4.63;;;3.90;;
4694;SDS011;2361;49.540;8.390;2022-08-02T04:16:41;4.23;;;3.50;;
4694;SDS011;2361;49.540;8.390;2022-08-02T04:19:41;4.17;;;3.80;;
4694;SDS011;2361;49.540;8.390;2022-08-02T04:22:20;4.67;;;4.10;;
4694;SDS011;2361;49.540;8.390;2022-08-02T04:24:56;3.60;;;3.33;;
4694;SDS011;2361;49.540;8.390;2022-08-02T04:27:26;4.73;;;4.20;;
4694;SDS011;2361;49.540;8.390;2022-08-02T04:30:14;3.70;;;3.47;;
4694;SDS011;2361;49.540;8.390;2022-08-02T04:32:43;3.80;;;3.50;;
4694;SDS011;2361;49.540;8.390;2022-08-02T04:35:10;4.03;;;3.60;;
4694;SDS011;2361;49.540;8.390;2022-08-02T04:37:46;3.67;;;3.33;;
4694;SDS011;2361;49.540;8.390;2022-08-02T04:40:34;4.03;;;3.73;;
4694;SDS011;2361;49.540;8.390;2022-08-02T04:43:01;3.93;;;3.60;;
4694;SDS011;2361;49.540;8.390;2022-08-02T04:45:28;3.43;;;3.23;;
4694;SDS011;2361;49.540;8.390;2022-08-02T04:47:56;3.60;;;3.40;;
4694;SDS011;2361;49.540;8.390;2022-08-02T04:50:31;3.80;;;3.50;;
4694;SDS011;2361;49.540;8.390;2022-08-02T04:53:00;5.00;;;4.00;;
4694;SDS011;2361;49.540;8.390;2022-08-02T04:55:27;3.37;;;3.17;;
4694;SDS011;2361;49.540;8.390;2022-08-02T04:57:55;3.40;;;3.20;;
4694;SDS011;2361;49.540;8.390;2022-08-02T05:00:24;3.87;;;3.67;;
4694;SDS011;2361;49.540;8.390;2022-08-02T05:02:54;5.23;;;3.83;;
4694;SDS011;2361;49.540;8.390;2022-08-02T05:05:22;3.90;;;3.60;;
4694;SDS011;2361;49.540;8.390;2022-08-02T05:07:49;3.37;;;3.17;;
4694;SDS011;2361;49.540;8.390;2022-08-02T05:10:16;4.03;;;3.70;;
4694;SDS011;2361;49.540;8.390;2022-08-02T05:12:44;3.83;;;3.53;;
4694;SDS011;2361;49.540;8.390;2022-08-02T05:15:11;3.73;;;3.43;;
4694;SDS011;2361;49.540;8.390;2022-08-02T05:17:41;8.90;;;3.40;;
4694;SDS011;2361;49.540;8.390;2022-08-02T05:20:13;4.23;;;3.80;;
4694;SDS011;2361;49.540;8.390;2022-08-02T05:22:43;7.37;;;4.83;;
4694;SDS011;2361;49.540;8.390;2022-08-02T05:25:10;4.10;;;3.80;;
4694;SDS011;2361;49.540;8.390;2022-08-02T05:27:37;4.47;;;4.13;;
4694;SDS011;2361;49.540;8.390;2022-08-02T05:30:05;4.60;;;3.87;;
4694;SDS011;2361;49.540;8.390;2022-08-02T05:32:32;5.63;;;3.50;;
4694;SDS011;2361;49.540;8.390;2022-08-02T05:35:00;4.93;;;3.90;;
4694;SDS011;2361;49.540;8.390;2022-08-02T05:37:28;4.60;;;4.10;;
4694;SDS011;2361;49.540;8.390;2022-08-02T05:39:58;4.27;;;3.73;;
4694;SDS011;2361;49.540;8.390;2022-08-02T05:42:26;4.23;;;3.83;;
4694;SDS011;2361;49.540;8.390;2022-08-02T05:44:57;6.83;;;4.53;;
4694;SDS011;2361;49.540;8.390;2022-08-02T05:47:24;4.77;;;4.30;;
4694;SDS011;2361;49.540;8.390;2022-08-02T05:49:51;5.40;;;4.13;;
4694;SDS011;2361;49.540;8.390;2022-08-02T05:52:18;4.53;;;4.23;;
4694;SDS011;2361;49.540;8.390;2022-08-02T05:57:29;3.50;;;3.20;;
4694;SDS011;2361;49.540;8.390;2022-08-02T06:00:30;6.73;;;3.87;;
4694;SDS011;2361;49.540;8.390;2022-08-02T06:03:44;5.57;;;3.90;;
4694;SDS011;2361;49.540;8.390;2022-08-02T06:06:16;3.90;;;3.60;;
4694;SDS011;2361;49.540;8.390;2022-08-02T06:08:50;3.57;;;3.27;;
4694;SDS011;2361;49.540;8.390;2022-08-02T06:11:40;4.47;;;3.40;;
4694;SDS011;2361;49.540;8.390;2022-08-02T06:14:29;4.30;;;3.70;;
4694;SDS011;2361;49.540;8.390;2022-08-02T06:16:59;3.93;;;3.63;;
4694;SDS011;2361;49.540;8.390;2022-08-02T06:19:32;4.27;;;3.63;;
4694;SDS011;2361;49.540;8.390;2022-08-02T06:22:18;4.37;;;3.97;;
4694;SDS011;2361;49.540;8.390;2022-08-02T06:25:05;3.80;;;3.60;;
4694;SDS011;2361;49.540;8.390;2022-08-02T06:27:53;4.00;;;3.30;;
4694;SDS011;2361;49.540;8.390;2022-08-02T06:30:21;4.07;;;3.77;;
4694;SDS011;2361;49.540;8.390;2022-08-02T06:32:51;3.50;;;3.30;;
4694;SDS011;2361;49.540;8.390;2022-08-02T06:35:19;3.23;;;3.03;;
4694;SDS011;2361;49.540;8.390;2022-08-02T06:37:51;3.17;;;2.90;;
4694;SDS011;2361;49.540;8.390;2022-08-02T06:46:46;3.53;;;3.23;;
4694;SDS011;2361;49.540;8.390;2022-08-02T06:49:33;4.40;;;3.13;;
4694;SDS011;2361;49.540;8.390;2022-08-02T06:52:18;3.33;;;3.10;;
4694;SDS011;2361;49.540;8.390;2022-08-02T06:54:54;3.53;;;2.70;;
4694;SDS011;2361;49.540;8.390;2022-08-02T06:57:23;2.93;;;2.80;;
4694;SDS011;2361;49.540;8.390;2022-08-02T06:59:50;3.00;;;2.80;;
4694;SDS011;2361;49.540;8.390;2022-08-02T07:02:17;2.87;;;2.67;;
4694;SDS011;2361;49.540;8.390;2022-08-02T07:04:44;2.97;;;2.77;;
4694;SDS011;2361;49.540;8.390;2022-08-02T07:07:11;2.60;;;2.50;;
4694;SDS011;2361;49.540;8.390;2022-08-02T07:09:38;2.70;;;2.60;;
4694;SDS011;2361;49.540;8.390;2022-08-02T07:12:25;3.83;;;2.33;;
4694;SDS011;2361;49.540;8.390;2022-08-02T07:14:57;4.63;;;3.00;;
4694;SDS011;2361;49.540;8.390;2022-08-02T07:17:27;2.23;;;2.23;;
4694;SDS011;2361;49.540;8.390;2022-08-02T07:19:55;2.60;;;2.50;;
4694;SDS011;2361;49.540;8.390;2022-08-02T07:22:23;2.47;;;2.37;;
4694;SDS011;2361;49.540;8.390;2022-08-02T07:24:52;2.63;;;2.53;;
4694;SDS011;2361;49.540;8.390;2022-08-02T07:27:21;5.27;;;2.40;;
4694;SDS011;2361;49.540;8.390;2022-08-02T07:29:49;2.80;;;2.70;;
4694;SDS011;2361;49.540;8.390;2022-08-02T07:32:17;2.60;;;2.50;;
4694;SDS011;2361;49.540;8.390;2022-08-02T07:34:48;3.17;;;1.90;;
4694;SDS011;2361;49.540;8.390;2022-08-02T07:37:26;2.47;;;2.40;;
4694;SDS011;2361;49.540;8.390;2022-08-02T07:40:15;2.60;;;2.50;;
4694;SDS011;2361;49.540;8.390;2022-08-02T07:42:46;3.07;;;2.60;;
4694;SDS011;2361;49.540;8.390;2022-08-02T07:45:17;2.37;;;2.27;;
4694;SDS011;2361;49.540;8.390;2022-08-02T07:47:45;2.73;;;2.53;;
4694;SDS011;2361;49.540;8.390;2022-08-02T07:50:13;3.07;;;2.87;;
4694;SDS011;2361;49.540;8.390;2022-08-02T07:52:42;2.07;;;2.07;;
4694;SDS011;2361;49.540;8.390;2022-08-02T07:55:10;2.43;;;2.43;;
4694;SDS011;2361;49.540;8.390;2022-08-02T07:57:38;4.03;;;2.23;;
4694;SDS011;2361;49.540;8.390;2022-08-02T08:00:11;2.37;;;2.23;;
4694;SDS011;2361;49.540;8.390;2022-08-02T08:02:41;2.50;;;2.40;;
4694;SDS011;2361;49.540;8.390;2022-08-02T08:05:08;4.70;;;2.20;;
4694;SDS011;2361;49.540;8.390;2022-08-02T08:07:35;2.17;;;2.07;;
4694;SDS011;2361;49.540;8.390;2022-08-02T08:10:03;1.97;;;1.97;;
4694;SDS011;2361;49.540;8.390;2022-08-02T08:12:31;2.37;;;2.27;;
4694;SDS011;2361;49.540;8.390;2022-08-02T08:15:00;1.70;;;1.70;;
4694;SDS011;2361;49.540;8.390;2022-08-02T08:17:27;2.27;;;2.07;;
4694;SDS011;2361;49.540;8.390;2022-08-02T08:19:54;5.33;;;2.37;;
4694;SDS011;2361;49.540;8.390;2022-08-02T08:22:21;2.50;;;1.87;;
4694;SDS011;2361;49.540;8.390;2022-08-02T08:24:48;2.30;;;2.20;;
4694;SDS011;2361;49.540;8.390;2022-08-02T08:27:15;2.00;;;1.93;;
4694;SDS011;2361;49.540;8.390;2022-08-02T08:29:43;1.83;;;1.73;;
4694;SDS011;2361;49.540;8.390;2022-08-02T08:32:11;6.83;;;2.40;;
4694;SDS011;2361;49.540;8.390;2022-08-02T08:34:44;2.23;;;1.83;;
4694;SDS011;2361;49.540;8.390;2022-08-02T08:37:12;2.13;;;2.13;;
4694;SDS011;2361;49.540;8.390;2022-08-02T08:39:46;2.00;;;2.00;;
4694;SDS011;2361;49.540;8.390;2022-08-02T08:42:27;2.00;;;1.90;;
4694;SDS011;2361;49.540;8.390;2022-08-02T08:44:56;2.10;;;2.10;;
4694;SDS011;2361;49.540;8.390;2022-08-02T08:47:46;2.10;;;2.00;;
4694;SDS011;2361;49.540;8.390;2022-08-02T08:50:22;2.00;;;1.80;;
4694;SDS011;2361;49.540;8.390;2022-08-02T08:53:01;1.63;;;1.63;;
4694;SDS011;2361;49.540;8.390;2022-08-02T08:55:31;1.60;;;1.60;;
4694;SDS011;2361;49.540;8.390;2022-08-02T08:58:02;1.50;;;1.50;;
4694;SDS011;2361;49.540;8.390;2022-08-02T09:00:31;1.70;;;1.70;;
4694;SDS011;2361;49.540;8.390;2022-08-02T09:03:01;1.40;;;1.40;;
4694;SDS011;2361;49.540;8.390;2022-08-02T09:05:30;1.80;;;1.80;;
4694;SDS011;2361;49.540;8.390;2022-08-02T09:08:00;1.80;;;1.80;;
4694;SDS011;2361;49.540;8.390;2022-08-02T09:13:07;2.00;;;2.00;;
4694;SDS011;2361;49.540;8.390;2022-08-02T09:16:01;1.70;;;1.70;;
4694;SDS011;2361;49.540;8.390;2022-08-02T09:18:38;1.60;;;1.60;;
4694;SDS011;2361;49.540;8.390;2022-08-02T09:21:11;1.70;;;1.70;;
4694;SDS011;2361;49.540;8.390;2022-08-02T09:23:45;1.70;;;1.70;;
4694;SDS011;2361;49.540;8.390;2022-08-02T09:26:18;1.90;;;1.90;;
4694;SDS011;2361;49.540;8.390;2022-08-02T09:28:48;1.53;;;1.53;;
4694;SDS011;2361;49.540;8.390;2022-08-02T09:31:26;1.97;;;1.97;;
4694;SDS011;2361;49.540;8.390;2022-08-02T09:33:55;1.93;;;1.93;;
4694;SDS011;2361;49.540;8.390;2022-08-02T09:36:23;1.97;;;1.97;;
4694;SDS011;2361;49.540;8.390;2022-08-02T09:41:24;2.53;;;1.93;;
4694;SDS011;2361;49.540;8.390;2022-08-02T09:43:53;1.90;;;1.90;;
4694;SDS011;2361;49.540;8.390;2022-08-02T09:46:29;1.90;;;1.90;;
4694;SDS011;2361;49.540;8.390;2022-08-02T09:49:08;2.00;;;1.90;;
4694;SDS011;2361;49.540;8.390;2022-08-02T09:54:16;1.70;;;1.70;;
4694;SDS011;2361;49.540;8.390;2022-08-02T09:56:49;2.00;;;2.00;;
4694;SDS011;2361;49.540;8.390;2022-08-02T09:59:19;1.80;;;1.80;;
4694;SDS011;2361;49.540;8.390;2022-08-02T10:01:48;1.80;;;1.80;;
4694;SDS011;2361;49.540;8.390;2022-08-02T10:04:28;1.75;;;1.75;;
4694;SDS011;2361;49.540;8.390;2022-08-02T10:07:17;2.23;;;2.23;;
4694;SDS011;2361;49.540;8.390;2022-08-02T10:09:47;1.70;;;1.70;;
4694;SDS011;2361;49.540;8.390;2022-08-02T10:12:14;1.77;;;1.77;;
4694;SDS011;2361;49.540;8.390;2022-08-02T10:14:41;1.87;;;1.87;;
4694;SDS011;2361;49.540;8.390;2022-08-02T10:17:09;2.03;;;2.03;;
4694;SDS011;2361;49.540;8.390;2022-08-02T10:19:36;1.80;;;1.80;;
4694;SDS011;2361;49.540;8.390;2022-08-02T10:22:23;1.90;;;1.90;;
4694;SDS011;2361;49.540;8.390;2022-08-02T10:24:51;1.50;;;1.50;;
4694;SDS011;2361;49.540;8.390;2022-08-02T10:27:19;1.80;;;1.80;;
4694;SDS011;2361;49.540;8.390;2022-08-02T10:29:48;1.67;;;1.67;;
4694;SDS011;2361;49.540;8.390;2022-08-02T10:37:49;1.50;;;1.50;;
4694;SDS011;2361;49.540;8.390;2022-08-02T10:40:20;1.50;;;1.50;;
4694;SDS011;2361;49.540;8.390;2022-08-02T10:42:52;1.70;;;1.70;;
4694;SDS011;2361;49.540;8.390;2022-08-02T10:45:25;1.80;;;1.80;;
4694;SDS011;2361;49.540;8.390;2022-08-02T10:48:09;1.60;;;1.60;;
4694;SDS011;2361;49.540;8.390;2022-08-02T10:55:56;1.50;;;1.50;;
4694;SDS011;2361;49.540;8.390;2022-08-02T10:58:29;1.73;;;1.60;;
4694;SDS011;2361;49.540;8.390;2022-08-02T11:01:03;1.60;;;1.60;;
4694;SDS011;2361;49.540;8.390;2022-08-02T11:04:03;1.07;;;1.07;;
4694;SDS011;2361;49.540;8.390;2022-08-02T11:06:35;1.60;;;1.60;;
4694;SDS011;2361;49.540;8.390;2022-08-02T11:09:58;1.80;;;1.70;;
4694;SDS011;2361;49.540;8.390;2022-08-02T11:18:22;2.70;;;1.87;;
4694;SDS011;2361;49.540;8.390;2022-08-02T11:23:53;2.40;;;1.53;;
4694;SDS011;2361;49.540;8.390;2022-08-02T11:26:42;1.67;;;1.67;;
4694;SDS011;2361;49.540;8.390;2022-08-02T11:29:09;1.50;;;1.40;;
4694;SDS011;2361;49.540;8.390;2022-08-02T11:31:42;12.67;;;2.00;;
4694;SDS011;2361;49.540;8.390;2022-08-02T11:34:10;1.60;;;1.50;;
4694;SDS011;2361;49.540;8.390;2022-08-02T11:36:57;1.67;;;1.57;;
4694;SDS011;2361;49.540;8.390;2022-08-02T11:39:25;9.33;;;7.10;;
4694;SDS011;2361;49.540;8.390;2022-08-02T11:41:55;2.10;;;1.90;;
4694;SDS011;2361;49.540;8.390;2022-08-02T11:44:25;1.70;;;1.60;;
4694;SDS011;2361;49.540;8.390;2022-08-02T11:46:54;1.40;;;1.40;;
4694;SDS011;2361;49.540;8.390;2022-08-02T11:49:24;2.10;;;1.30;;
4694;SDS011;2361;49.540;8.390;2022-08-02T11:51:56;1.53;;;1.53;;
4694;SDS011;2361;49.540;8.390;2022-08-02T11:54:37;10.13;;;1.77;;
4694;SDS011;2361;49.540;8.390;2022-08-02T11:57:14;1.83;;;1.83;;
4694;SDS011;2361;49.540;8.390;2022-08-02T11:59:53;1.47;;;1.47;;
4694;SDS011;2361;49.540;8.390;2022-08-02T12:02:23;1.80;;;1.80;;
4694;SDS011;2361;49.540;8.390;2022-08-02T12:05:04;1.50;;;1.40;;
4694;SDS011;2361;49.540;8.390;2022-08-02T12:07:37;1.57;;;1.57;;
4694;SDS011;2361;49.540;8.390;2022-08-02T12:10:15;3.70;;;1.60;;
4694;SDS011;2361;49.540;8.390;2022-08-02T12:12:49;1.47;;;1.40;;
4694;SDS011;2361;49.540;8.390;2022-08-02T12:15:33;1.50;;;1.50;;
4694;SDS011;2361;49.540;8.390;2022-08-02T12:18:10;1.80;;;1.70;;
4694;SDS011;2361;49.540;8.390;2022-08-02T12:21:01;1.63;;;1.53;;
4694;SDS011;2361;49.540;8.390;2022-08-02T12:23:30;1.60;;;1.50;;
4694;SDS011;2361;49.540;8.390;2022-08-02T12:26:03;1.50;;;1.50;;
4694;SDS011;2361;49.540;8.390;2022-08-02T12:28:36;1.60;;;1.60;;
4694;SDS011;2361;49.540;8.390;2022-08-02T12:31:05;1.60;;;1.60;;
4694;SDS011;2361;49.540;8.390;2022-08-02T12:36:16;1.70;;;1.60;;
4694;SDS011;2361;49.540;8.390;2022-08-02T12:38:51;1.50;;;1.50;;
4694;SDS011;2361;49.540;8.390;2022-08-02T12:41:24;1.50;;;1.43;;
4694;SDS011;2361;49.540;8.390;2022-08-02T12:43:57;1.33;;;1.33;;
4694;SDS011;2361;49.540;8.390;2022-08-02T12:46:25;1.50;;;1.50;;
4694;SDS011;2361;49.540;8.390;2022-08-02T12:48:52;1.40;;;1.40;;
4694;SDS011;2361;49.540;8.390;2022-08-02T12:51:38;1.40;;;1.40;;
4694;SDS011;2361;49.540;8.390;2022-08-02T12:57:10;2.30;;;2.00;;
4694;SDS011;2361;49.540;8.390;2022-08-02T12:59:40;1.77;;;1.67;;
4694;SDS011;2361;49.540;8.390;2022-08-02T13:02:10;1.50;;;1.50;;
4694;SDS011;2361;49.540;8.390;2022-08-02T13:04:39;1.50;;;1.50;;
4694;SDS011;2361;49.540;8.390;2022-08-02T13:07:15;15.40;;;9.33;;
4694;SDS011;2361;49.540;8.390;2022-08-02T13:09:43;10.80;;;8.60;;
4694;SDS011;2361;49.540;8.390;2022-08-02T13:12:11;3.20;;;3.00;;
4694;SDS011;2361;49.540;8.390;2022-08-02T13:14:38;1.63;;;1.60;;
4694;SDS011;2361;49.540;8.390;2022-08-02T13:17:08;1.70;;;1.70;;
4694;SDS011;2361;49.540;8.390;2022-08-02T13:19:36;1.70;;;1.43;;
4694;SDS011;2361;49.540;8.390;2022-08-02T13:22:04;1.47;;;1.47;;
4694;SDS011;2361;49.540;8.390;2022-08-02T13:24:35;1.30;;;1.30;;
4694;SDS011;2361;49.540;8.390;2022-08-02T13:27:21;1.70;;;1.70;;
4694;SDS011;2361;49.540;8.390;2022-08-02T13:29:49;1.50;;;1.40;;
4694;SDS011;2361;49.540;8.390;2022-08-02T13:32:17;1.80;;;1.73;;
4694;SDS011;2361;49.540;8.390;2022-08-02T13:34:44;1.67;;;1.57;;
4694;SDS011;2361;49.540;8.390;2022-08-02T13:37:12;1.53;;;1.43;;
4694;SDS011;2361;49.540;8.390;2022-08-02T13:39:39;2.77;;;1.50;;
4694;SDS011;2361;49.540;8.390;2022-08-02T13:42:06;3.60;;;1.90;;
4694;SDS011;2361;49.540;8.390;2022-08-02T13:44:41;1.60;;;1.50;;
4694;SDS011;2361;49.540;8.390;2022-08-02T13:47:09;1.60;;;1.60;;
4694;SDS011;2361;49.540;8.390;2022-08-02T13:49:36;1.80;;;1.70;;
4694;SDS011;2361;49.540;8.390;2022-08-02T13:52:16;2.30;;;1.50;;
4694;SDS011;2361;49.540;8.390;2022-08-02T13:54:43;2.20;;;2.10;;
4694;SDS011;2361;49.540;8.390;2022-08-02T13:57:10;1.50;;;1.50;;
4694;SDS011;2361;49.540;8.390;2022-08-02T13:59:37;1.60;;;1.60;;
4694;SDS011;2361;49.540;8.390;2022-08-02T14:02:24;1.73;;;1.73;;
4694;SDS011;2361;49.540;8.390;2022-08-02T14:04:53;4.10;;;1.63;;
4694;SDS011;2361;49.540;8.390;2022-08-02T14:07:20;4.63;;;1.77;;
4694;SDS011;2361;49.540;8.390;2022-08-02T14:09:48;3.60;;;1.80;;
4694;SDS011;2361;49.540;8.390;2022-08-02T14:12:15;1.57;;;1.47;;
4694;SDS011;2361;49.540;8.390;2022-08-02T14:14:42;1.70;;;1.60;;
4694;SDS011;2361;49.540;8.390;2022-08-02T14:17:09;1.40;;;1.40;;
4694;SDS011;2361;49.540;8.390;2022-08-02T14:19:36;9.50;;;1.70;;
4694;SDS011;2361;49.540;8.390;2022-08-02T14:22:05;1.70;;;1.70;;
4694;SDS011;2361;49.540;8.390;2022-08-02T14:24:37;4.10;;;1.50;;
4694;SDS011;2361;49.540;8.390;2022-08-02T14:27:04;2.73;;;1.97;;
4694;SDS011;2361;49.540;8.390;2022-08-02T14:29:31;1.97;;;1.87;;
4694;SDS011;2361;49.540;8.390;2022-08-02T14:31:59;1.90;;;1.80;;
4694;SDS011;2361;49.540;8.390;2022-08-02T14:34:26;1.90;;;1.73;;
4694;SDS011;2361;49.540;8.390;2022-08-02T14:36:54;1.87;;;1.77;;
4694;SDS011;2361;49.540;8.390;2022-08-02T14:39:21;1.80;;;1.80;;
4694;SDS011;2361;49.540;8.390;2022-08-02T14:41:49;2.17;;;2.03;;
4694;SDS011;2361;49.540;8.390;2022-08-02T14:44:26;2.80;;;2.70;;
4694;SDS011;2361;49.540;8.390;2022-08-02T14:46:54;1.97;;;1.80;;
4694;SDS011;2361;49.540;8.390;2022-08-02T14:49:21;1.90;;;1.90;;
4694;SDS011;2361;49.540;8.390;2022-08-02T14:51:52;1.87;;;1.77;;
4694;SDS011;2361;49.540;8.390;2022-08-02T14:54:20;2.00;;;1.90;;
4694;SDS011;2361;49.540;8.390;2022-08-02T14:56:55;1.90;;;1.90;;
4694;SDS011;2361;49.540;8.390;2022-08-02T14:59:27;2.70;;;2.07;;
4694;SDS011;2361;49.540;8.390;2022-08-02T15:01:55;1.90;;;1.80;;
4694;SDS011;2361;49.540;8.390;2022-08-02T15:04:22;1.93;;;1.83;;
4694;SDS011;2361;49.540;8.390;2022-08-02T15:06:51;1.43;;;1.43;;
4694;SDS011;2361;49.540;8.390;2022-08-02T15:09:19;1.83;;;1.60;;
4694;SDS011;2361;49.540;8.390;2022-08-02T15:11:46;1.80;;;1.60;;
4694;SDS011;2361;49.540;8.390;2022-08-02T15:14:18;2.57;;;1.70;;
4694;SDS011;2361;49.540;8.390;2022-08-02T15:16:51;1.90;;;1.80;;
4694;SDS011;2361;49.540;8.390;2022-08-02T15:19:23;2.00;;;1.90;;
4694;SDS011;2361;49.540;8.390;2022-08-02T15:22:10;2.03;;;1.90;;
4694;SDS011;2361;49.540;8.390;2022-08-02T15:24:42;2.00;;;2.00;;
4694;SDS011;2361;49.540;8.390;2022-08-02T15:27:09;2.00;;;1.90;;
4694;SDS011;2361;49.540;8.390;2022-08-02T15:29:39;2.07;;;1.97;;
4694;SDS011;2361;49.540;8.390;2022-08-02T15:32:10;1.53;;;1.43;;
4694;SDS011;2361;49.540;8.390;2022-08-02T15:34:38;2.87;;;1.60;;
4694;SDS011;2361;49.540;8.390;2022-08-02T15:37:05;1.93;;;1.93;;
4694;SDS011;2361;49.540;8.390;2022-08-02T15:39:32;2.37;;;2.10;;
4694;SDS011;2361;49.540;8.390;2022-08-02T15:41:59;2.10;;;1.90;;
4694;SDS011;2361;49.540;8.390;2022-08-02T15:44:26;2.20;;;2.00;;
4694;SDS011;2361;49.540;8.390;2022-08-02T15:46:54;3.13;;;1.90;;
4694;SDS011;2361;49.540;8.390;2022-08-02T15:49:21;2.03;;;1.93;;
4694;SDS011;2361;49.540;8.390;2022-08-02T15:51:52;3.10;;;1.80;;
4694;SDS011;2361;49.540;8.390;2022-08-02T15:54:20;1.90;;;1.80;;
4694;SDS011;2361;49.540;8.390;2022-08-02T15:56:47;2.53;;;1.97;;
4694;SDS011;2361;49.540;8.390;2022-08-02T15:59:14;1.90;;;1.80;;
4694;SDS011;2361;49.540;8.390;2022-08-02T16:01:41;2.20;;;2.10;;
4694;SDS011;2361;49.540;8.390;2022-08-02T16:04:13;2.20;;;2.10;;
4694;SDS011;2361;49.540;8.390;2022-08-02T16:06:41;2.23;;;2.13;;
4694;SDS011;2361;49.540;8.390;2022-08-02T16:09:09;2.17;;;2.07;;
4694;SDS011;2361;49.540;8.390;2022-08-02T16:11:36;1.67;;;1.67;;
4694;SDS011;2361;49.540;8.390;2022-08-02T16:14:03;2.03;;;1.93;;
4694;SDS011;2361;49.540;8.390;2022-08-02T16:16:32;1.80;;;1.70;;
4694;SDS011;2361;49.540;8.390;2022-08-02T16:19:02;4.63;;;2.00;;
4694;SDS011;2361;49.540;8.390;2022-08-02T16:21:51;1.70;;;1.70;;
4694;SDS011;2361;49.540;8.390;2022-08-02T16:24:19;1.97;;;1.87;;
4694;SDS011;2361;49.540;8.390;2022-08-02T16:26:46;2.20;;;2.10;;
4694;SDS011;2361;49.540;8.390;2022-08-02T16:29:13;2.90;;;2.80;;
4694;SDS011;2361;49.540;8.390;2022-08-02T16:31:45;2.83;;;2.50;;
4694;SDS011;2361;49.540;8.390;2022-08-02T16:34:13;2.63;;;1.90;;